Time;durP1;ratioP1;P1;durP2;ratioP2;P2;SDS_P1;SDS_P2;PMS_P1;PMS_P2;Temp;Humidity;BMP_temperature;BMP_pressure;BME280_temperature;BME280_humidity;BME280_pressure;Samples;Min_cycle;Max_cycle;Signal;HPM_P1;HPM_P2
2021/05/07 00:01:46;;;;;;;6.22;3.60;;;7.70;99.90;;;;;;5028940;28;20049;-44
2021/05/07 00:04:16;;;;;;;6.05;3.78;;;7.70;99.90;;;;;;5029183;28;20025;-44
2021/05/07 00:06:42;;;;;;;6.30;3.70;;;7.70;99.90;;;;;;5029279;28;20049;-45
2021/05/07 00:09:07;;;;;;;9.07;3.83;;;7.70;99.90;;;;;;5028452;28;20462;-45
2021/05/07 00:11:33;;;;;;;5.75;3.15;;;7.70;99.90;;;;;;5029138;28;20033;-45
2021/05/07 00:14:00;;;;;;;6.38;3.95;;;7.70;99.90;;;;;;5029653;28;20055;-45
2021/05/07 00:16:27;;;;;;;8.20;3.58;;;7.60;99.90;;;;;;5028803;28;20044;-44
2021/05/07 00:18:53;;;;;;;4.03;2.72;;;7.60;99.90;;;;;;5028360;28;20104;-43
2021/05/07 00:21:18;;;;;;;4.65;2.83;;;7.60;99.90;;;;;;5029529;28;20106;-44
2021/05/07 00:23:44;;;;;;;4.05;3.42;;;7.50;99.90;;;;;;5028916;28;20026;-45
2021/05/07 00:26:09;;;;;;;6.25;3.58;;;7.60;99.90;;;;;;5028450;28;20030;-44
2021/05/07 00:28:37;;;;;;;3.75;2.90;;;7.60;99.90;;;;;;5027811;28;20072;-44
2021/05/07 00:31:03;;;;;;;5.18;3.15;;;7.50;99.90;;;;;;5028513;28;20033;-45
2021/05/07 00:33:28;;;;;;;6.80;3.40;;;7.40;99.90;;;;;;5027224;28;20025;-45
2021/05/07 00:35:54;;;;;;;11.50;3.70;;;7.40;99.90;;;;;;5028588;28;20079;-43
2021/05/07 00:38:19;;;;;;;5.22;3.22;;;7.40;99.90;;;;;;5027724;28;20018;-44
2021/05/07 00:40:45;;;;;;;5.90;3.20;;;7.40;99.90;;;;;;5028075;28;20037;-45
2021/05/07 00:43:12;;;;;;;6.18;3.05;;;7.30;99.90;;;;;;5028899;28;20029;-46
2021/05/07 00:45:37;;;;;;;4.22;2.92;;;7.30;99.90;;;;;;5028582;28;20049;-45
2021/05/07 00:48:11;;;;;;;7.80;3.17;;;7.30;99.90;;;;;;5027913;28;20064;-45
2021/05/07 00:50:39;;;;;;;4.85;3.42;;;7.30;99.90;;;;;;5028195;28;20237;-45
2021/05/07 00:53:05;;;;;;;6.00;3.47;;;7.30;99.90;;;;;;5026608;28;20060;-45
2021/05/07 00:55:32;;;;;;;6.15;3.45;;;7.30;99.90;;;;;;5027904;28;20434;-44
2021/05/07 00:57:58;;;;;;;5.65;3.00;;;7.20;99.90;;;;;;5025615;28;20079;-43
2021/05/07 01:00:25;;;;;;;5.43;2.85;;;7.20;99.90;;;;;;5026444;28;20017;-44
2021/05/07 01:02:51;;;;;;;6.50;3.30;;;7.20;99.90;;;;;;5028545;28;20021;-44
2021/05/07 01:05:21;;;;;;;5.25;3.30;;;7.10;99.90;;;;;;5026417;28;20108;-44
2021/05/07 01:07:47;;;;;;;7.32;4.50;;;7.10;99.90;;;;;;5027479;28;20025;-43
2021/05/07 01:10:13;;;;;;;5.50;3.58;;;7.00;99.90;;;;;;5027672;28;20177;-44
2021/05/07 01:12:40;;;;;;;4.82;3.28;;;7.00;99.90;;;;;;5028007;28;20163;-47
2021/05/07 01:15:08;;;;;;;6.40;3.92;;;6.90;99.90;;;;;;5027844;28;20518;-45
2021/05/07 01:17:37;;;;;;;5.70;3.60;;;6.90;99.90;;;;;;5027419;28;20152;-44
2021/05/07 01:20:24;;;;;;;6.40;3.67;;;6.90;99.90;;;;;;5028084;28;20025;-45
2021/05/07 01:22:51;;;;;;;7.25;4.28;;;6.90;99.90;;;;;;5027686;28;20503;-45
2021/05/07 01:25:20;;;;;;;8.25;4.20;;;6.80;99.90;;;;;;5027237;28;20519;-45
2021/05/07 01:27:47;;;;;;;8.32;4.35;;;6.80;99.90;;;;;;5026559;28;20497;-45
2021/05/07 01:30:18;;;;;;;6.28;3.85;;;6.80;99.90;;;;;;5026937;28;20035;-43
2021/05/07 01:32:44;;;;;;;8.70;3.83;;;6.80;99.90;;;;;;5027817;28;20060;-43
2021/05/07 01:35:16;;;;;;;7.13;4.10;;;6.80;99.90;;;;;;5027329;28;20445;-44
2021/05/07 01:37:43;;;;;;;8.43;4.10;;;6.70;99.90;;;;;;5025962;28;20037;-44
2021/05/07 01:40:21;;;;;;;5.82;4.90;;;6.70;99.90;;;;;;5027482;28;20541;-46
2021/05/07 01:42:47;;;;;;;6.20;4.47;;;6.70;99.90;;;;;;5027776;28;20026;-44
2021/05/07 01:45:14;;;;;;;8.88;4.57;;;6.60;99.90;;;;;;5028170;28;20075;-44
2021/05/07 01:47:40;;;;;;;9.68;4.68;;;6.70;99.90;;;;;;5027552;28;20064;-45
2021/05/07 01:50:07;;;;;;;7.97;4.53;;;6.70;99.90;;;;;;5027611;28;20034;-45
2021/05/07 01:52:33;;;;;;;6.50;4.40;;;6.60;99.90;;;;;;5027559;28;20085;-45
2021/05/07 01:54:59;;;;;;;8.35;4.53;;;6.60;99.90;;;;;;5027084;28;20635;-45
2021/05/07 01:57:29;;;;;;;8.25;4.70;;;6.50;99.90;;;;;;5025171;28;20029;-45
2021/05/07 01:59:55;;;;;;;8.02;4.82;;;6.50;99.90;;;;;;5027611;28;20083;-45
2021/05/07 02:02:20;;;;;;;9.23;5.20;;;6.50;99.90;;;;;;5027089;28;20021;-45
2021/05/07 02:04:46;;;;;;;8.95;5.03;;;6.50;99.90;;;;;;5027339;28;20022;-45
2021/05/07 02:07:11;;;;;;;7.90;4.68;;;6.50;99.90;;;;;;5027222;28;20495;-45
2021/05/07 02:09:37;;;;;;;7.22;5.03;;;6.60;99.90;;;;;;5027223;28;20037;-44
2021/05/07 02:12:02;;;;;;;7.45;4.70;;;6.60;99.90;;;;;;5025934;28;20061;-44
2021/05/07 02:14:28;;;;;;;8.88;4.90;;;6.50;99.90;;;;;;5027163;28;20415;-45
2021/05/07 02:16:53;;;;;;;8.80;5.25;;;6.60;99.90;;;;;;5026989;28;20113;-45
2021/05/07 02:19:19;;;;;;;10.02;5.05;;;6.60;99.90;;;;;;5026614;28;20495;-47
2021/05/07 02:21:44;;;;;;;7.88;4.72;;;6.60;99.90;;;;;;5026779;28;20025;-48
2021/05/07 02:24:11;;;;;;;11.10;5.63;;;6.60;99.90;;;;;;5027300;28;20026;-44
2021/05/07 02:26:37;;;;;;;8.75;5.50;;;6.50;99.90;;;;;;5026915;28;20458;-44
2021/05/07 02:29:03;;;;;;;8.40;5.38;;;6.60;99.90;;;;;;5026294;28;20033;-44
2021/05/07 02:31:28;;;;;;;8.35;4.97;;;6.60;99.90;;;;;;5025324;28;20045;-44
2021/05/07 02:33:54;;;;;;;6.00;5.40;;;6.60;99.90;;;;;;5026053;28;20113;-44
2021/05/07 02:36:19;;;;;;;9.15;5.57;;;6.60;99.90;;;;;;5008895;28;20046;-44
2021/05/07 02:38:45;;;;;;;9.38;5.03;;;6.50;99.90;;;;;;5027233;28;20041;-46
2021/05/07 02:41:10;;;;;;;10.10;5.53;;;6.40;99.90;;;;;;5030649;28;20030;-45
2021/05/07 02:43:36;;;;;;;8.05;5.22;;;6.30;99.90;;;;;;5030518;28;20036;-45
2021/05/07 02:46:01;;;;;;;9.25;5.60;;;6.30;99.90;;;;;;5030836;28;20029;-44
2021/05/07 02:48:27;;;;;;;9.27;6.15;;;6.20;99.90;;;;;;5030088;28;20176;-44
2021/05/07 02:50:53;;;;;;;10.32;6.25;;;6.20;99.90;;;;;;5030655;28;20387;-45
2021/05/07 02:53:19;;;;;;;10.88;6.18;;;6.30;99.90;;;;;;5030098;28;20032;-44
2021/05/07 02:55:44;;;;;;;9.75;6.70;;;6.30;99.90;;;;;;5030562;28;20041;-44
2021/05/07 02:58:10;;;;;;;15.43;6.20;;;6.30;99.90;;;;;;5029605;28;20029;-44
2021/05/07 03:00:35;;;;;;;8.57;5.90;;;6.30;99.90;;;;;;5029041;28;20172;-45
2021/05/07 03:03:01;;;;;;;8.60;6.18;;;6.30;99.90;;;;;;5030368;28;20021;-44
2021/05/07 03:05:26;;;;;;;9.18;5.68;;;6.30;99.90;;;;;;5030644;28;20107;-44
2021/05/07 03:07:52;;;;;;;9.65;6.40;;;6.30;99.90;;;;;;5029842;28;20490;-45
2021/05/07 03:10:17;;;;;;;12.23;7.03;;;6.30;99.90;;;;;;5028548;28;20504;-44
2021/05/07 03:12:43;;;;;;;13.10;6.70;;;6.30;99.90;;;;;;5027970;28;20029;-45
2021/05/07 03:15:09;;;;;;;7.63;6.03;;;6.30;99.90;;;;;;5028403;28;20490;-45
2021/05/07 03:17:36;;;;;;;13.02;7.70;;;6.30;99.90;;;;;;5026648;28;20041;-44
2021/05/07 03:20:02;;;;;;;10.95;6.75;;;6.30;99.90;;;;;;5029641;28;20029;-45
2021/05/07 03:22:28;;;;;;;13.02;7.18;;;6.30;99.90;;;;;;5028481;28;20025;-44
2021/05/07 03:24:53;;;;;;;11.38;7.78;;;6.30;99.90;;;;;;5029304;28;20522;-45
2021/05/07 03:27:20;;;;;;;12.70;7.95;;;6.30;99.90;;;;;;5029035;28;20471;-44
2021/05/07 03:29:45;;;;;;;12.35;7.60;;;6.20;99.90;;;;;;5028073;28;20040;-44
2021/05/07 03:32:11;;;;;;;9.55;7.55;;;6.20;99.90;;;;;;5029595;28;20033;-44
2021/05/07 03:34:37;;;;;;;11.52;8.02;;;6.20;99.90;;;;;;5029573;28;20029;-44
2021/05/07 03:37:03;;;;;;;14.32;7.50;;;6.10;99.90;;;;;;5026770;28;20104;-45
2021/05/07 03:39:28;;;;;;;13.60;7.57;;;5.90;99.90;;;;;;5027182;28;20411;-44
2021/05/07 03:41:54;;;;;;;13.15;8.23;;;5.90;99.90;;;;;;5029337;28;20339;-44
2021/05/07 03:44:19;;;;;;;11.60;7.60;;;5.90;99.90;;;;;;5029411;28;20505;-44
2021/05/07 03:46:45;;;;;;;11.77;7.63;;;5.90;99.90;;;;;;5029204;28;20029;-44
2021/05/07 03:49:10;;;;;;;11.07;6.88;;;5.80;99.90;;;;;;5025207;28;20105;-44
2021/05/07 03:51:36;;;;;;;11.25;7.20;;;5.70;99.90;;;;;;5027797;28;20030;-45
2021/05/07 03:54:01;;;;;;;11.63;6.85;;;5.70;99.90;;;;;;5029363;28;20025;-45
2021/05/07 03:56:28;;;;;;;9.88;6.22;;;5.60;99.90;;;;;;5028860;28;20399;-45
2021/05/07 03:58:53;;;;;;;11.13;6.93;;;5.40;99.90;;;;;;5027890;28;20029;-44
2021/05/07 04:01:19;;;;;;;10.52;6.45;;;5.40;99.90;;;;;;5029215;28;20030;-44
2021/05/07 04:03:44;;;;;;;7.72;5.95;;;5.40;99.90;;;;;;5029434;28;20049;-44
2021/05/07 04:06:15;;;;;;;10.38;6.82;;;5.40;99.90;;;;;;5029715;28;20502;-44
2021/05/07 04:08:43;;;;;;;10.70;7.35;;;5.40;99.90;;;;;;5028165;28;20080;-44
2021/05/07 04:11:21;;;;;;;9.18;6.85;;;5.40;99.90;;;;;;5028384;28;20036;-44
2021/05/07 04:13:47;;;;;;;12.35;7.47;;;5.30;99.90;;;;;;5009533;28;20384;-44
2021/05/07 04:16:12;;;;;;;13.18;7.50;;;5.30;99.90;;;;;;5009405;28;20034;-45
2021/05/07 04:18:38;;;;;;;10.65;7.45;;;5.30;99.90;;;;;;5007788;28;20037;-44
2021/05/07 04:21:04;;;;;;;10.32;7.20;;;5.30;99.90;;;;;;5009149;28;20029;-44
2021/05/07 04:23:29;;;;;;;10.07;6.38;;;5.20;99.90;;;;;;5008982;28;20026;-44
2021/05/07 04:25:55;;;;;;;12.15;6.18;;;5.20;99.90;;;;;;5027923;28;20399;-44
2021/05/07 04:28:21;;;;;;;6.57;5.10;;;5.10;99.90;;;;;;5027805;28;20029;-44
2021/05/07 04:30:47;;;;;;;7.78;5.28;;;5.00;99.90;;;;;;5027597;28;20040;-44
2021/05/07 04:33:12;;;;;;;6.70;4.78;;;5.00;99.90;;;;;;5028040;28;20372;-43
2021/05/07 04:35:38;;;;;;;7.03;5.43;;;4.90;99.90;;;;;;5028619;28;20036;-43
2021/05/07 04:38:04;;;;;;;5.68;4.57;;;4.80;99.90;;;;;;5027908;28;20475;-43
2021/05/07 04:40:31;;;;;;;6.93;4.38;;;4.60;99.90;;;;;;5028656;28;20032;-42
2021/05/07 04:43:00;;;;;;;4.40;3.80;;;4.60;99.90;;;;;;5028151;28;20045;-43
2021/05/07 04:45:26;;;;;;;8.43;5.38;;;4.50;99.90;;;;;;5028183;28;20415;-44
2021/05/07 04:47:52;;;;;;;5.10;4.03;;;4.50;99.90;;;;;;5026732;28;20059;-44
2021/05/07 04:50:17;;;;;;;6.75;4.68;;;4.40;99.90;;;;;;5027537;28;20037;-43
2021/05/07 04:52:42;;;;;;;4.82;3.78;;;4.30;99.90;;;;;;5027678;28;20487;-44
2021/05/07 04:55:09;;;;;;;6.05;4.53;;;4.30;99.90;;;;;;5028343;28;20518;-44
2021/05/07 04:57:34;;;;;;;4.95;3.88;;;4.30;99.90;;;;;;5026223;28;20044;-44
2021/05/07 05:00:00;;;;;;;7.75;5.10;;;4.20;99.90;;;;;;5024999;28;20467;-45
2021/05/07 05:02:26;;;;;;;8.20;4.80;;;4.30;99.90;;;;;;5025548;28;20130;-44
2021/05/07 05:04:52;;;;;;;6.43;5.20;;;4.20;99.90;;;;;;5026497;28;20247;-45
2021/05/07 05:07:17;;;;;;;8.52;6.03;;;4.10;99.90;;;;;;5026295;28;20029;-44
2021/05/07 05:09:44;;;;;;;8.30;4.95;;;4.10;99.90;;;;;;5026385;28;20041;-45
2021/05/07 05:12:09;;;;;;;6.57;4.78;;;4.00;99.90;;;;;;5026458;28;20021;-44
2021/05/07 05:14:35;;;;;;;8.10;5.18;;;3.80;99.90;;;;;;5027881;28;20037;-44
2021/05/07 05:17:00;;;;;;;7.60;5.20;;;3.80;99.90;;;;;;5027768;28;20029;-45
2021/05/07 05:19:26;;;;;;;10.52;6.93;;;3.80;99.90;;;;;;5027322;28;20029;-46
2021/05/07 05:21:51;;;;;;;8.48;5.90;;;3.80;99.90;;;;;;5028098;28;20031;-46
2021/05/07 05:24:17;;;;;;;9.20;6.07;;;3.80;99.90;;;;;;5027533;28;20151;-43
2021/05/07 05:26:42;;;;;;;8.13;5.85;;;3.70;99.90;;;;;;5027750;28;20037;-44
2021/05/07 05:29:11;;;;;;;8.30;5.75;;;3.70;99.90;;;;;;5027119;28;20033;-44
2021/05/07 05:31:39;;;;;;;8.25;5.82;;;3.80;99.90;;;;;;5026218;28;20529;-45
2021/05/07 05:34:05;;;;;;;7.32;5.57;;;3.80;99.90;;;;;;5027476;28;20057;-48
2021/05/07 05:36:30;;;;;;;7.38;5.72;;;3.80;99.90;;;;;;5027587;28;20280;-44
2021/05/07 05:38:56;;;;;;;6.68;5.40;;;3.80;99.90;;;;;;5026909;28;20503;-45
2021/05/07 05:41:21;;;;;;;9.82;6.20;;;3.60;99.90;;;;;;5027306;28;20060;-46
2021/05/07 05:43:48;;;;;;;8.00;5.47;;;3.60;99.90;;;;;;5027523;28;20036;-45
2021/05/07 05:46:17;;;;;;;9.48;6.00;;;3.70;99.90;;;;;;5026394;28;20049;-46
2021/05/07 05:48:42;;;;;;;9.45;6.30;;;3.70;99.90;;;;;;5026970;28;20427;-46
2021/05/07 05:51:08;;;;;;;8.73;6.63;;;3.80;99.90;;;;;;5026243;28;20025;-45
2021/05/07 05:53:33;;;;;;;9.80;6.97;;;3.90;99.90;;;;;;5026691;28;20025;-45
2021/05/07 05:55:59;;;;;;;8.55;6.25;;;4.00;99.90;;;;;;5027509;28;20033;-44
2021/05/07 05:58:25;;;;;;;9.73;6.13;;;3.80;99.90;;;;;;5026813;28;20687;-45
2021/05/07 06:00:50;;;;;;;7.80;6.18;;;3.80;99.90;;;;;;5027443;28;20109;-45
2021/05/07 06:03:16;;;;;;;7.75;6.03;;;3.70;99.90;;;;;;5027754;28;20104;-46
2021/05/07 06:05:42;;;;;;;10.43;7.25;;;3.80;99.90;;;;;;5027209;28;20119;-45
2021/05/07 06:08:07;;;;;;;10.68;7.25;;;3.90;99.90;;;;;;5027103;28;20021;-46
2021/05/07 06:10:33;;;;;;;10.75;7.50;;;3.90;99.90;;;;;;5026927;28;20036;-46
2021/05/07 06:12:58;;;;;;;9.13;6.50;;;4.00;99.90;;;;;;5027303;28;20025;-45
2021/05/07 06:15:24;;;;;;;11.10;7.57;;;4.00;99.90;;;;;;5031009;28;20036;-46
2021/05/07 06:17:50;;;;;;;10.73;7.15;;;4.00;99.90;;;;;;5030595;28;20037;-45
2021/05/07 06:20:17;;;;;;;10.10;7.30;;;4.00;99.90;;;;;;5031147;28;20032;-45
2021/05/07 06:22:43;;;;;;;12.02;7.32;;;4.00;99.90;;;;;;5031601;28;20030;-46
2021/05/07 06:25:14;;;;;;;11.68;8.23;;;4.10;99.90;;;;;;5032009;28;20029;-46
2021/05/07 06:27:43;;;;;;;10.63;7.82;;;4.30;99.90;;;;;;5030640;28;20055;-47
2021/05/07 06:30:10;;;;;;;12.80;8.25;;;4.30;99.90;;;;;;5031097;28;20052;-45
2021/05/07 06:32:36;;;;;;;11.52;7.65;;;4.40;99.90;;;;;;5031488;28;20038;-46
2021/05/07 06:35:03;;;;;;;14.23;8.43;;;4.50;99.90;;;;;;5032301;28;20040;-46
2021/05/07 06:37:28;;;;;;;12.32;8.35;;;4.50;99.90;;;;;;5031050;28;20364;-46
2021/05/07 06:39:54;;;;;;;11.70;8.40;;;4.40;99.90;;;;;;5031483;28;20021;-46
2021/05/07 06:42:20;;;;;;;11.70;8.68;;;4.40;99.90;;;;;;5032552;28;20026;-46
2021/05/07 06:44:46;;;;;;;12.25;9.05;;;4.40;99.90;;;;;;5032441;28;20564;-45
2021/05/07 06:47:11;;;;;;;14.07;9.77;;;4.40;99.90;;;;;;5030295;28;20583;-45
2021/05/07 06:49:37;;;;;;;15.85;10.27;;;4.40;99.90;;;;;;5027963;28;20036;-46
2021/05/07 06:52:04;;;;;;;14.73;10.60;;;4.50;99.90;;;;;;5030018;28;20041;-45
2021/05/07 06:54:29;;;;;;;15.70;10.82;;;4.50;99.90;;;;;;5029973;28;20034;-45
2021/05/07 06:56:56;;;;;;;15.55;10.93;;;4.60;99.90;;;;;;5030003;28;20403;-45
2021/05/07 06:59:25;;;;;;;17.48;11.38;;;4.70;99.90;;;;;;5029957;28;20087;-46
2021/05/07 07:01:51;;;;;;;14.38;10.18;;;4.80;99.90;;;;;;5030389;28;20029;-45
2021/05/07 07:04:17;;;;;;;17.13;11.23;;;4.90;99.90;;;;;;5030780;28;20573;-48
2021/05/07 07:06:42;;;;;;;16.85;11.45;;;4.90;99.90;;;;;;5030530;28;20173;-45
2021/05/07 07:09:08;;;;;;;17.52;12.57;;;5.00;99.90;;;;;;5030196;28;20104;-46
2021/05/07 07:11:34;;;;;;;20.58;13.30;;;5.00;99.90;;;;;;5030963;28;20249;-45
2021/05/07 07:14:00;;;;;;;19.60;14.00;;;5.00;99.90;;;;;;5030139;28;20483;-46
2021/05/07 07:16:25;;;;;;;20.05;14.32;;;5.10;99.90;;;;;;5030061;28;20412;-46
2021/05/07 07:18:51;;;;;;;19.63;14.55;;;5.20;99.90;;;;;;5028833;28;20028;-45
2021/05/07 07:21:16;;;;;;;25.10;16.35;;;5.30;99.90;;;;;;5030385;28;20018;-45
2021/05/07 07:23:42;;;;;;;25.80;16.65;;;5.30;99.90;;;;;;5030617;28;20079;-49
2021/05/07 07:26:07;;;;;;;27.80;17.70;;;5.30;99.90;;;;;;5029863;28;20021;-46
2021/05/07 07:28:35;;;;;;;24.95;17.52;;;5.40;99.90;;;;;;5030554;28;20091;-46
2021/05/07 07:31:01;;;;;;;26.98;18.95;;;5.50;99.90;;;;;;5028726;28;20033;-45
2021/05/07 07:33:28;;;;;;;28.95;18.63;;;5.60;99.90;;;;;;5029580;28;20026;-47
2021/05/07 07:35:54;;;;;;;23.58;17.38;;;5.50;99.90;;;;;;5029640;28;20442;-46
2021/05/07 07:38:19;;;;;;;26.70;19.00;;;5.60;99.90;;;;;;5027492;28;20030;-46
2021/05/07 07:40:45;;;;;;;30.85;20.60;;;5.60;99.90;;;;;;5029260;28;20288;-45
2021/05/07 07:43:10;;;;;;;27.60;19.55;;;5.80;99.90;;;;;;5029395;28;20030;-46
2021/05/07 07:45:36;;;;;;;29.73;19.63;;;5.80;99.90;;;;;;5029368;28;20583;-45
2021/05/07 07:48:01;;;;;;;29.05;19.63;;;6.00;99.90;;;;;;5026475;28;20059;-45
2021/05/07 07:50:28;;;;;;;27.33;18.95;;;6.00;99.90;;;;;;5028115;28;20033;-46
2021/05/07 07:52:54;;;;;;;29.27;18.90;;;6.00;99.90;;;;;;5028601;28;20553;-45
2021/05/07 07:55:20;;;;;;;29.35;20.15;;;6.00;99.90;;;;;;5028088;28;20099;-45
2021/05/07 07:57:45;;;;;;;26.80;19.67;;;6.00;99.90;;;;;;5027665;28;20021;-48
2021/05/07 08:00:11;;;;;;;30.27;19.13;;;6.10;99.90;;;;;;5028718;28;20463;-45
2021/05/07 08:02:38;;;;;;;33.25;21.05;;;6.20;99.90;;;;;;5026393;28;20025;-45
2021/05/07 08:05:04;;;;;;;29.85;19.67;;;6.40;99.90;;;;;;5028896;28;20195;-45
2021/05/07 08:07:30;;;;;;;27.40;18.88;;;6.60;99.90;;;;;;5024123;28;20056;-45
2021/05/07 08:09:56;;;;;;;25.58;17.95;;;6.50;99.90;;;;;;5007680;28;20041;-45
2021/05/07 08:12:21;;;;;;;26.80;19.15;;;6.60;99.90;;;;;;5021683;28;20022;-45
2021/05/07 08:14:47;;;;;;;30.33;19.88;;;6.80;99.90;;;;;;5028009;28;20026;-45
2021/05/07 08:17:12;;;;;;;28.33;18.45;;;6.90;99.90;;;;;;5027633;28;20037;-46
2021/05/07 08:19:38;;;;;;;28.75;19.50;;;7.10;99.90;;;;;;5028263;28;20171;-49
2021/05/07 08:22:04;;;;;;;25.00;17.65;;;7.20;99.90;;;;;;5028251;28;20080;-44
2021/05/07 08:24:30;;;;;;;24.45;16.25;;;7.40;99.90;;;;;;5029322;28;20067;-45
2021/05/07 08:26:58;;;;;;;23.95;17.30;;;7.70;99.90;;;;;;5028628;28;20461;-45
2021/05/07 08:29:24;;;;;;;21.70;15.57;;;8.20;99.90;;;;;;5028309;28;20095;-45
2021/05/07 08:31:50;;;;;;;18.30;14.35;;;8.80;99.90;;;;;;5027965;28;20128;-45
2021/05/07 08:34:16;;;;;;;19.10;14.75;;;9.00;99.90;;;;;;5008818;28;20112;-49
2021/05/07 08:36:42;;;;;;;18.40;14.00;;;9.20;99.90;;;;;;5008526;28;20030;-45
2021/05/07 08:39:07;;;;;;;19.83;13.63;;;9.30;99.90;;;;;;5022277;28;20059;-45
2021/05/07 08:41:33;;;;;;;14.18;11.32;;;10.20;99.90;;;;;;5026487;28;20113;-47
2021/05/07 08:43:58;;;;;;;12.10;9.98;;;10.70;99.90;;;;;;5026577;28;20033;-48
2021/05/07 08:46:24;;;;;;;11.60;9.85;;;11.60;99.90;;;;;;5023865;28;20108;-45
2021/05/07 08:48:51;;;;;;;11.48;9.88;;;12.40;99.90;;;;;;5025309;28;20041;-46
2021/05/07 08:51:18;;;;;;;9.75;8.18;;;13.40;99.90;;;;;;5027465;28;20026;-45
2021/05/07 08:53:44;;;;;;;10.23;8.88;;;13.70;99.90;;;;;;5027390;28;20283;-45
2021/05/07 08:56:09;;;;;;;11.02;9.00;;;13.90;96.60;;;;;;5028113;28;20535;-46
2021/05/07 08:58:36;;;;;;;9.73;8.13;;;13.40;97.80;;;;;;5026984;28;20079;-45
2021/05/07 09:01:03;;;;;;;11.45;8.68;;;13.20;99.90;;;;;;5026086;28;20025;-45
2021/05/07 09:03:46;;;;;;;10.02;9.02;;;12.30;98.40;;;;;;5025702;28;20071;-48
2021/05/07 09:06:19;;;;;;;10.98;9.52;;;11.40;99.90;;;;;;5027725;28;20113;-45
2021/05/07 09:08:45;;;;;;;8.65;7.75;;;10.90;99.90;;;;;;5026023;28;20546;-45
2021/05/07 09:11:11;;;;;;;9.40;6.63;;;10.00;99.90;;;;;;5027860;28;20029;-45
2021/05/07 09:13:36;;;;;;;6.10;5.10;;;9.40;99.90;;;;;;5027318;28;20423;-45
2021/05/07 09:16:10;;;;;;;6.85;5.93;;;8.80;99.90;;;;;;5027544;28;20374;-47
2021/05/07 09:18:43;;;;;;;7.68;6.57;;;8.10;99.90;;;;;;5025903;28;20553;-45
2021/05/07 09:21:10;;;;;;;7.55;6.70;;;7.70;99.90;;;;;;5028040;28;20025;-46
2021/05/07 09:23:43;;;;;;;11.18;7.47;;;7.30;99.90;;;;;;5028638;28;20030;-45
2021/05/07 09:26:09;;;;;;;10.55;7.82;;;7.00;99.90;;;;;;5027277;28;20029;-44
2021/05/07 09:28:35;;;;;;;11.48;8.05;;;6.90;99.90;;;;;;5027483;28;20040;-44
2021/05/07 09:31:15;;;;;;;12.88;9.27;;;6.80;99.90;;;;;;5026339;28;20433;-44
2021/05/07 09:33:48;;;;;;;13.45;8.77;;;6.60;99.90;;;;;;5026999;28;20450;-46
2021/05/07 09:36:27;;;;;;;15.95;10.35;;;6.40;99.90;;;;;;5027107;28;20025;-47
2021/05/07 09:38:54;;;;;;;14.93;9.07;;;6.50;99.90;;;;;;5026041;28;20061;-44
2021/05/07 09:41:19;;;;;;;14.88;9.85;;;6.60;99.90;;;;;;5026602;28;20021;-44
2021/05/07 09:43:45;;;;;;;15.85;9.77;;;6.80;99.90;;;;;;5027155;28;20506;-44
2021/05/07 09:46:11;;;;;;;13.52;9.15;;;6.90;99.90;;;;;;5027067;28;20017;-46
2021/05/07 09:48:41;;;;;;;14.20;8.32;;;6.80;99.90;;;;;;5025859;28;20099;-45
2021/05/07 09:51:08;;;;;;;10.88;7.63;;;6.90;99.90;;;;;;5025515;28;20037;-44
2021/05/07 09:53:38;;;;;;;10.88;7.07;;;6.90;99.90;;;;;;5026429;28;20146;-47
2021/05/07 09:56:15;;;;;;;12.88;8.07;;;7.20;99.90;;;;;;5026717;28;20538;-45
2021/05/07 09:58:42;;;;;;;10.73;8.05;;;7.50;99.90;;;;;;5025759;28;20037;-50
2021/05/07 10:01:08;;;;;;;9.95;7.90;;;8.40;99.90;;;;;;5025843;28;20626;-45
2021/05/07 10:03:34;;;;;;;8.85;7.30;;;9.10;99.90;;;;;;5026905;28;20102;-45
2021/05/07 10:06:03;;;;;;;9.57;7.43;;;9.80;99.90;;;;;;5026535;28;20110;-45
2021/05/07 10:09:06;;;;;;;13.70;8.43;;;10.40;99.90;;;;;;5023752;28;20056;-45
2021/05/07 10:11:41;;;;;;;8.80;7.15;;;10.90;99.90;;;;;;5003632;28;20127;-44
2021/05/07 10:14:14;;;;;;;8.60;7.30;;;10.90;99.90;;;;;;5007340;28;20064;-45
2021/05/07 10:16:40;;;;;;;9.35;7.82;;;10.30;99.90;;;;;;5011687;28;20044;-45
2021/05/07 10:19:08;;;;;;;8.57;6.93;;;9.80;99.90;;;;;;5025594;28;20061;-46
2021/05/07 10:21:35;;;;;;;10.05;7.68;;;9.20;99.90;;;;;;5025760;28;20023;-46
2021/05/07 10:24:01;;;;;;;11.23;8.00;;;8.70;99.90;;;;;;5026287;28;20018;-46
2021/05/07 10:26:34;;;;;;;9.30;7.35;;;8.40;99.90;;;;;;5026677;28;20441;-45
2021/05/07 10:29:00;;;;;;;10.95;8.35;;;8.20;99.90;;;;;;5026059;28;20096;-43
2021/05/07 10:31:26;;;;;;;11.48;9.18;;;8.70;99.90;;;;;;5026239;28;20167;-44
2021/05/07 10:34:02;;;;;;;8.75;7.85;;;10.50;99.90;;;;;;5026372;28;20511;-46
2021/05/07 10:36:38;;;;;;;8.18;6.32;;;11.60;99.90;;;;;;5025238;28;20025;-46
2021/05/07 10:39:18;;;;;;;9.98;7.00;;;11.30;99.90;;;;;;5022932;28;20029;-43
2021/05/07 10:41:44;;;;;;;6.57;5.47;;;10.60;99.90;;;;;;5022919;28;20029;-44
2021/05/07 10:44:12;;;;;;;6.40;5.47;;;9.60;99.90;;;;;;5024988;28;20010;-44
2021/05/07 10:46:38;;;;;;;7.53;5.63;;;9.40;99.90;;;;;;5024488;28;20360;-44
2021/05/07 10:49:04;;;;;;;8.32;5.63;;;9.20;99.90;;;;;;5024471;28;20272;-43
2021/05/07 10:51:29;;;;;;;7.93;5.43;;;8.90;99.90;;;;;;5025065;28;20414;-44
2021/05/07 10:54:33;;;;;;;6.95;4.80;;;8.90;99.90;;;;;;5023365;28;20360;-44
2021/05/07 10:56:59;;;;;;;6.32;4.72;;;9.10;99.90;;;;;;5019073;28;20106;-44
2021/05/07 10:59:24;;;;;;;5.82;4.53;;;9.40;99.90;;;;;;5024626;28;20503;-44
2021/05/07 11:01:57;;;;;;;7.25;5.32;;;9.80;99.90;;;;;;5029257;28;20022;-45
2021/05/07 11:04:24;;;;;;;5.50;4.65;;;10.40;99.90;;;;;;5026171;28;20022;-44
2021/05/07 11:07:00;;;;;;;4.63;4.13;;;10.60;99.90;;;;;;5028697;28;20032;-45
2021/05/07 11:09:27;;;;;;;7.20;4.35;;;10.70;99.90;;;;;;5026075;28;20017;-44
2021/05/07 11:12:03;;;;;;;5.18;4.45;;;10.80;99.90;;;;;;5028490;28;20009;-46
2021/05/07 11:14:29;;;;;;;5.13;4.40;;;11.00;99.90;;;;;;5026931;28;20714;-46
2021/05/07 11:16:55;;;;;;;5.38;4.30;;;11.10;99.90;;;;;;5027218;28;20028;-44
2021/05/07 11:19:32;;;;;;;5.40;4.63;;;11.40;99.90;;;;;;5026759;28;20386;-45
2021/05/07 11:22:06;;;;;;;4.70;3.88;;;12.40;99.90;;;;;;5028727;28;20116;-45
2021/05/07 11:24:37;;;;;;;4.07;3.65;;;13.80;99.90;;;;;;5028406;28;20029;-46
2021/05/07 11:27:19;;;;;;;8.25;4.32;;;14.10;96.70;;;;;;5028997;28;20112;-48
2021/05/07 11:29:45;;;;;;;4.82;4.05;;;13.80;93.90;;;;;;5029305;28;20549;-45
2021/05/07 11:32:16;;;;;;;6.13;4.47;;;14.10;95.40;;;;;;5029005;28;20041;-45
2021/05/07 11:34:48;;;;;;;6.93;4.50;;;13.90;90.90;;;;;;5026507;28;20013;-45
2021/05/07 11:37:14;;;;;;;7.40;4.82;;;14.30;93.70;;;;;;5026909;28;20537;-45
2021/05/07 11:39:39;;;;;;;5.00;4.50;;;14.90;90.30;;;;;;5028480;28;20030;-45
2021/05/07 11:42:05;;;;;;;5.25;4.15;;;15.10;88.80;;;;;;5029129;28;20026;-46
2021/05/07 11:44:30;;;;;;;8.43;4.80;;;14.20;85.60;;;;;;5028794;28;20048;-45
2021/05/07 11:47:06;;;;;;;6.68;4.20;;;13.30;90.90;;;;;;5029488;28;20483;-45
2021/05/07 11:49:38;;;;;;;5.15;4.65;;;12.20;93.30;;;;;;5028868;28;20036;-45
2021/05/07 11:52:04;;;;;;;5.70;5.13;;;11.40;98.60;;;;;;5029080;28;20026;-45
2021/05/07 11:54:45;;;;;;;5.35;4.80;;;10.60;99.90;;;;;;5029016;28;20025;-45
2021/05/07 11:57:12;;;;;;;6.40;5.45;;;10.80;99.90;;;;;;5028625;28;20029;-45
2021/05/07 11:59:49;;;;;;;6.50;5.15;;;11.30;99.90;;;;;;5028009;28;20021;-49
2021/05/07 12:02:22;;;;;;;5.10;4.55;;;12.30;99.90;;;;;;5028612;28;20431;-45
2021/05/07 12:04:48;;;;;;;7.35;4.50;;;13.20;99.90;;;;;;5028661;28;20031;-45
2021/05/07 12:07:28;;;;;;;5.63;4.20;;;13.60;99.90;;;;;;5028222;28;20037;-47
2021/05/07 12:09:55;;;;;;;3.75;3.33;;;13.70;96.80;;;;;;5028834;28;20042;-46
2021/05/07 12:12:21;;;;;;;4.35;3.42;;;14.10;98.90;;;;;;5027957;28;20048;-46
2021/05/07 12:14:49;;;;;;;4.47;3.30;;;14.40;96.20;;;;;;5028774;28;20037;-46
2021/05/07 12:17:20;;;;;;;5.53;3.05;;;14.50;90.60;;;;;;5028272;28;20079;-48
2021/05/07 12:20:02;;;;;;;3.25;2.95;;;14.00;87.70;;;;;;5028413;28;20219;-47
2021/05/07 12:22:31;;;;;;;6.60;2.75;;;13.50;91.20;;;;;;5028376;28;20032;-45
2021/05/07 12:25:15;;;;;;;3.25;2.75;;;12.80;90.10;;;;;;5028408;28;20106;-45
2021/05/07 12:27:42;;;;;;;6.80;2.28;;;12.90;91.70;;;;;;5027975;28;20078;-47
2021/05/07 12:30:23;;;;;;;3.20;2.55;;;13.10;93.00;;;;;;5028407;28;20402;-46
2021/05/07 12:32:52;;;;;;;;;;;12.90;88.90;;;;;;5027559;28;20032;-45
2021/05/07 12:35:18;;;;;;;4.13;2.08;;;12.60;90.00;;;;;;5028168;28;19905;-47
2021/05/07 12:37:45;;;;;;;3.30;2.47;;;13.00;92.30;;;;;;5028178;28;20024;-46
2021/05/07 12:40:11;;;;;;;3.15;2.45;;;13.10;88.50;;;;;;5027763;28;20104;-45
2021/05/07 12:42:37;;;;;;;2.03;1.83;;;13.40;89.90;;;;;;5028160;28;20475;-45
2021/05/07 12:45:03;;;;;;;2.38;2.15;;;14.00;82.80;;;;;;5027837;28;20033;-46
2021/05/07 12:47:28;;;;;;;2.72;2.35;;;13.70;82.30;;;;;;5027356;28;20029;-45
2021/05/07 12:49:54;;;;;;;4.13;2.40;;;13.40;79.00;;;;;;5028128;28;20040;-44
2021/05/07 12:52:19;;;;;;;2.92;2.60;;;13.70;87.90;;;;;;5026375;28;20491;-43